sensor_id;sensor_type;location;lat;lon;timestamp;P1;durP1;ratioP1;P2;durP2;ratioP2
24229;SDS011;12362;50.004;8.006;2022-09-11T00:01:11;0.15;;;0.10;;
24229;SDS011;12362;50.004;8.006;2022-09-11T00:03:40;0.45;;;0.30;;
24229;SDS011;12362;50.004;8.006;2022-09-11T00:06:09;1.27;;;0.40;;
24229;SDS011;12362;50.004;8.006;2022-09-11T00:08:38;0.63;;;0.32;;
24229;SDS011;12362;50.004;8.006;2022-09-11T00:11:07;1.23;;;0.40;;
24229;SDS011;12362;50.004;8.006;2022-09-11T00:13:38;1.45;;;0.40;;
24229;SDS011;12362;50.004;8.006;2022-09-11T00:16:06;1.17;;;0.47;;
24229;SDS011;12362;50.004;8.006;2022-09-11T00:18:52;0.40;;;0.40;;
24229;SDS011;12362;50.004;8.006;2022-09-11T00:21:22;0.50;;;0.40;;
24229;SDS011;12362;50.004;8.006;2022-09-11T00:23:48;0.63;;;0.35;;
24229;SDS011;12362;50.004;8.006;2022-09-11T00:26:18;0.47;;;0.30;;
24229;SDS011;12362;50.004;8.006;2022-09-11T00:28:46;1.20;;;0.25;;
24229;SDS011;12362;50.004;8.006;2022-09-11T00:31:18;0.80;;;0.57;;
24229;SDS011;12362;50.004;8.006;2022-09-11T00:33:49;0.57;;;0.50;;
24229;SDS011;12362;50.004;8.006;2022-09-11T00:36:19;1.88;;;0.55;;
24229;SDS011;12362;50.004;8.006;2022-09-11T00:38:50;2.22;;;0.47;;
24229;SDS011;12362;50.004;8.006;2022-09-11T00:41:33;0.68;;;0.55;;
24229;SDS011;12362;50.004;8.006;2022-09-11T00:46:47;0.80;;;0.57;;
24229;SDS011;12362;50.004;8.006;2022-09-11T00:49:22;1.63;;;0.60;;
24229;SDS011;12362;50.004;8.006;2022-09-11T00:51:58;1.13;;;0.50;;
24229;SDS011;12362;50.004;8.006;2022-09-11T00:54:32;0.65;;;0.63;;
24229;SDS011;12362;50.004;8.006;2022-09-11T00:57:02;0.95;;;0.52;;
24229;SDS011;12362;50.004;8.006;2022-09-11T00:59:33;0.40;;;0.40;;
24229;SDS011;12362;50.004;8.006;2022-09-11T01:02:02;2.17;;;0.50;;
24229;SDS011;12362;50.004;8.006;2022-09-11T01:04:29;2.05;;;0.70;;
24229;SDS011;12362;50.004;8.006;2022-09-11T01:06:55;0.75;;;0.50;;
24229;SDS011;12362;50.004;8.006;2022-09-11T01:09:27;2.53;;;1.15;;
24229;SDS011;12362;50.004;8.006;2022-09-11T01:12:11;1.77;;;0.93;;
24229;SDS011;12362;50.004;8.006;2022-09-11T01:18:29;1.35;;;0.60;;
24229;SDS011;12362;50.004;8.006;2022-09-11T01:21:01;2.65;;;0.75;;
24229;SDS011;12362;50.004;8.006;2022-09-11T01:23:46;0.85;;;0.70;;
24229;SDS011;12362;50.004;8.006;2022-09-11T01:32:14;2.50;;;0.88;;
24229;SDS011;12362;50.004;8.006;2022-09-11T01:34:50;2.28;;;1.20;;
24229;SDS011;12362;50.004;8.006;2022-09-11T01:37:24;1.52;;;0.68;;
24229;SDS011;12362;50.004;8.006;2022-09-11T01:40:04;2.42;;;1.10;;
24229;SDS011;12362;50.004;8.006;2022-09-11T01:42:37;2.58;;;0.77;;
24229;SDS011;12362;50.004;8.006;2022-09-11T01:45:09;1.25;;;0.90;;
24229;SDS011;12362;50.004;8.006;2022-09-11T01:47:43;0.65;;;0.60;;
24229;SDS011;12362;50.004;8.006;2022-09-11T01:50:14;1.35;;;0.73;;
24229;SDS011;12362;50.004;8.006;2022-09-11T01:53:04;2.67;;;1.17;;
24229;SDS011;12362;50.004;8.006;2022-09-11T01:55:39;1.05;;;0.60;;
24229;SDS011;12362;50.004;8.006;2022-09-11T01:58:17;1.50;;;0.70;;
24229;SDS011;12362;50.004;8.006;2022-09-11T02:00:55;1.00;;;0.60;;
24229;SDS011;12362;50.004;8.006;2022-09-11T02:03:37;1.33;;;0.50;;
24229;SDS011;12362;50.004;8.006;2022-09-11T02:06:08;2.65;;;0.90;;
24229;SDS011;12362;50.004;8.006;2022-09-11T02:08:50;1.17;;;0.80;;
24229;SDS011;12362;50.004;8.006;2022-09-11T02:11:23;1.08;;;0.80;;
24229;SDS011;12362;50.004;8.006;2022-09-11T02:14:03;1.73;;;0.85;;
24229;SDS011;12362;50.004;8.006;2022-09-11T02:16:47;1.25;;;0.50;;
24229;SDS011;12362;50.004;8.006;2022-09-11T02:19:16;2.50;;;0.70;;
24229;SDS011;12362;50.004;8.006;2022-09-11T02:21:45;3.17;;;0.80;;
24229;SDS011;12362;50.004;8.006;2022-09-11T02:24:14;3.05;;;1.30;;
24229;SDS011;12362;50.004;8.006;2022-09-11T02:26:43;1.65;;;0.60;;
24229;SDS011;12362;50.004;8.006;2022-09-11T02:29:15;2.40;;;0.90;;
24229;SDS011;12362;50.004;8.006;2022-09-11T02:31:41;1.45;;;0.80;;
24229;SDS011;12362;50.004;8.006;2022-09-11T02:34:10;2.45;;;0.80;;
24229;SDS011;12362;50.004;8.006;2022-09-11T02:36:51;0.75;;;0.55;;
24229;SDS011;12362;50.004;8.006;2022-09-11T02:45:22;1.15;;;0.40;;
24229;SDS011;12362;50.004;8.006;2022-09-11T02:50:51;3.67;;;0.98;;
24229;SDS011;12362;50.004;8.006;2022-09-11T02:59:08;0.70;;;0.40;;
24229;SDS011;12362;50.004;8.006;2022-09-11T03:01:58;1.33;;;0.75;;
24229;SDS011;12362;50.004;8.006;2022-09-11T03:04:28;2.72;;;0.57;;
24229;SDS011;12362;50.004;8.006;2022-09-11T03:06:56;1.17;;;0.45;;
24229;SDS011;12362;50.004;8.006;2022-09-11T03:09:23;1.73;;;0.60;;
24229;SDS011;12362;50.004;8.006;2022-09-11T03:11:52;0.82;;;0.30;;
24229;SDS011;12362;50.004;8.006;2022-09-11T03:14:19;0.70;;;0.52;;
24229;SDS011;12362;50.004;8.006;2022-09-11T03:16:46;0.80;;;0.45;;
24229;SDS011;12362;50.004;8.006;2022-09-11T03:19:12;2.08;;;0.95;;
24229;SDS011;12362;50.004;8.006;2022-09-11T03:21:41;0.77;;;0.77;;
24229;SDS011;12362;50.004;8.006;2022-09-11T03:24:08;1.95;;;0.85;;
24229;SDS011;12362;50.004;8.006;2022-09-11T03:26:34;1.00;;;0.68;;
24229;SDS011;12362;50.004;8.006;2022-09-11T03:29:04;1.95;;;1.00;;
24229;SDS011;12362;50.004;8.006;2022-09-11T03:31:30;0.77;;;0.55;;
24229;SDS011;12362;50.004;8.006;2022-09-11T03:33:57;1.85;;;1.13;;
24229;SDS011;12362;50.004;8.006;2022-09-11T03:36:25;1.90;;;0.95;;
24229;SDS011;12362;50.004;8.006;2022-09-11T03:38:51;1.95;;;0.75;;
24229;SDS011;12362;50.004;8.006;2022-09-11T03:41:19;1.80;;;0.90;;
24229;SDS011;12362;50.004;8.006;2022-09-11T03:43:49;3.72;;;0.65;;
24229;SDS011;12362;50.004;8.006;2022-09-11T03:46:18;2.00;;;0.60;;
24229;SDS011;12362;50.004;8.006;2022-09-11T03:48:47;4.55;;;1.42;;
24229;SDS011;12362;50.004;8.006;2022-09-11T03:51:13;1.40;;;0.80;;
24229;SDS011;12362;50.004;8.006;2022-09-11T03:53:39;2.53;;;0.77;;
24229;SDS011;12362;50.004;8.006;2022-09-11T03:56:05;0.95;;;0.60;;
24229;SDS011;12362;50.004;8.006;2022-09-11T03:58:34;1.33;;;0.80;;
24229;SDS011;12362;50.004;8.006;2022-09-11T04:01:07;1.63;;;1.02;;
24229;SDS011;12362;50.004;8.006;2022-09-11T04:03:38;1.33;;;0.77;;
24229;SDS011;12362;50.004;8.006;2022-09-11T04:06:07;2.42;;;0.90;;
24229;SDS011;12362;50.004;8.006;2022-09-11T04:08:38;4.55;;;1.02;;
24229;SDS011;12362;50.004;8.006;2022-09-11T04:11:05;0.77;;;0.55;;
24229;SDS011;12362;50.004;8.006;2022-09-11T04:13:35;2.60;;;1.25;;
24229;SDS011;12362;50.004;8.006;2022-09-11T04:16:13;1.27;;;0.80;;
24229;SDS011;12362;50.004;8.006;2022-09-11T04:18:41;8.15;;;1.50;;
24229;SDS011;12362;50.004;8.006;2022-09-11T04:21:10;2.35;;;1.00;;
24229;SDS011;12362;50.004;8.006;2022-09-11T04:23:38;1.58;;;1.23;;
24229;SDS011;12362;50.004;8.006;2022-09-11T04:26:17;2.05;;;1.33;;
24229;SDS011;12362;50.004;8.006;2022-09-11T04:28:47;3.22;;;1.00;;
24229;SDS011;12362;50.004;8.006;2022-09-11T04:31:14;1.77;;;0.63;;
24229;SDS011;12362;50.004;8.006;2022-09-11T04:33:43;4.13;;;1.23;;
24229;SDS011;12362;50.004;8.006;2022-09-11T04:36:11;1.73;;;0.80;;
24229;SDS011;12362;50.004;8.006;2022-09-11T04:38:41;2.55;;;1.05;;
24229;SDS011;12362;50.004;8.006;2022-09-11T04:41:09;2.33;;;0.88;;
24229;SDS011;12362;50.004;8.006;2022-09-11T04:43:40;2.90;;;1.60;;
24229;SDS011;12362;50.004;8.006;2022-09-11T04:46:10;2.25;;;1.23;;
24229;SDS011;12362;50.004;8.006;2022-09-11T04:48:43;2.47;;;1.08;;
24229;SDS011;12362;50.004;8.006;2022-09-11T04:51:10;3.38;;;0.95;;
24229;SDS011;12362;50.004;8.006;2022-09-11T04:53:49;2.17;;;0.80;;
24229;SDS011;12362;50.004;8.006;2022-09-11T04:56:18;1.02;;;0.63;;
24229;SDS011;12362;50.004;8.006;2022-09-11T04:58:55;7.18;;;1.63;;
24229;SDS011;12362;50.004;8.006;2022-09-11T05:01:23;1.80;;;0.90;;
24229;SDS011;12362;50.004;8.006;2022-09-11T05:03:56;2.65;;;1.13;;
24229;SDS011;12362;50.004;8.006;2022-09-11T05:06:27;2.85;;;0.82;;
24229;SDS011;12362;50.004;8.006;2022-09-11T05:08:59;2.20;;;0.90;;
24229;SDS011;12362;50.004;8.006;2022-09-11T05:11:28;8.10;;;1.60;;
24229;SDS011;12362;50.004;8.006;2022-09-11T05:13:55;5.00;;;1.52;;
24229;SDS011;12362;50.004;8.006;2022-09-11T05:16:26;2.15;;;1.38;;
24229;SDS011;12362;50.004;8.006;2022-09-11T05:18:53;4.32;;;1.42;;
24229;SDS011;12362;50.004;8.006;2022-09-11T05:21:20;2.10;;;0.85;;
24229;SDS011;12362;50.004;8.006;2022-09-11T05:23:48;3.88;;;2.03;;
24229;SDS011;12362;50.004;8.006;2022-09-11T05:26:19;4.13;;;1.13;;
24229;SDS011;12362;50.004;8.006;2022-09-11T05:28:54;4.93;;;1.60;;
24229;SDS011;12362;50.004;8.006;2022-09-11T05:31:21;3.97;;;1.40;;
24229;SDS011;12362;50.004;8.006;2022-09-11T05:33:47;2.40;;;1.10;;
24229;SDS011;12362;50.004;8.006;2022-09-11T05:36:14;2.33;;;1.30;;
24229;SDS011;12362;50.004;8.006;2022-09-11T05:38:42;7.70;;;1.95;;
24229;SDS011;12362;50.004;8.006;2022-09-11T05:41:12;2.03;;;1.33;;
24229;SDS011;12362;50.004;8.006;2022-09-11T05:43:39;4.00;;;1.27;;
24229;SDS011;12362;50.004;8.006;2022-09-11T05:46:11;3.47;;;0.98;;
24229;SDS011;12362;50.004;8.006;2022-09-11T05:48:41;1.48;;;0.98;;
24229;SDS011;12362;50.004;8.006;2022-09-11T05:51:14;3.20;;;1.27;;
24229;SDS011;12362;50.004;8.006;2022-09-11T05:53:43;6.50;;;1.60;;
24229;SDS011;12362;50.004;8.006;2022-09-11T05:56:14;3.45;;;1.20;;
24229;SDS011;12362;50.004;8.006;2022-09-11T05:58:48;3.33;;;1.38;;
24229;SDS011;12362;50.004;8.006;2022-09-11T06:01:17;3.55;;;1.25;;
24229;SDS011;12362;50.004;8.006;2022-09-11T06:03:50;5.85;;;1.13;;
24229;SDS011;12362;50.004;8.006;2022-09-11T06:06:17;5.07;;;1.58;;
24229;SDS011;12362;50.004;8.006;2022-09-11T06:08:45;8.10;;;1.20;;
24229;SDS011;12362;50.004;8.006;2022-09-11T06:11:14;3.92;;;1.50;;
24229;SDS011;12362;50.004;8.006;2022-09-11T06:13:43;9.77;;;1.95;;
24229;SDS011;12362;50.004;8.006;2022-09-11T06:16:16;3.67;;;0.88;;
24229;SDS011;12362;50.004;8.006;2022-09-11T06:18:48;4.32;;;1.23;;
24229;SDS011;12362;50.004;8.006;2022-09-11T06:21:15;3.95;;;1.70;;
24229;SDS011;12362;50.004;8.006;2022-09-11T06:23:47;2.28;;;1.25;;
24229;SDS011;12362;50.004;8.006;2022-09-11T06:26:14;1.50;;;0.90;;
24229;SDS011;12362;50.004;8.006;2022-09-11T06:28:48;2.05;;;0.65;;
24229;SDS011;12362;50.004;8.006;2022-09-11T06:31:16;4.82;;;1.75;;
24229;SDS011;12362;50.004;8.006;2022-09-11T06:33:49;3.10;;;0.93;;
24229;SDS011;12362;50.004;8.006;2022-09-11T06:36:16;1.35;;;0.73;;
24229;SDS011;12362;50.004;8.006;2022-09-11T06:38:58;1.02;;;0.63;;
24229;SDS011;12362;50.004;8.006;2022-09-11T06:41:27;2.03;;;0.93;;
24229;SDS011;12362;50.004;8.006;2022-09-11T06:43:54;1.10;;;0.63;;
24229;SDS011;12362;50.004;8.006;2022-09-11T06:46:22;0.55;;;0.52;;
24229;SDS011;12362;50.004;8.006;2022-09-11T06:48:50;4.57;;;1.08;;
24229;SDS011;12362;50.004;8.006;2022-09-11T06:51:19;1.58;;;0.63;;
24229;SDS011;12362;50.004;8.006;2022-09-11T06:53:47;0.98;;;0.70;;
24229;SDS011;12362;50.004;8.006;2022-09-11T06:56:19;2.88;;;1.30;;
24229;SDS011;12362;50.004;8.006;2022-09-11T06:58:48;3.17;;;1.13;;
24229;SDS011;12362;50.004;8.006;2022-09-11T07:01:18;3.00;;;1.35;;
24229;SDS011;12362;50.004;8.006;2022-09-11T07:03:47;6.75;;;1.55;;
24229;SDS011;12362;50.004;8.006;2022-09-11T07:06:18;2.05;;;1.35;;
24229;SDS011;12362;50.004;8.006;2022-09-11T07:08:50;0.82;;;0.70;;
24229;SDS011;12362;50.004;8.006;2022-09-11T07:11:18;2.35;;;0.73;;
24229;SDS011;12362;50.004;8.006;2022-09-11T07:13:44;2.70;;;0.93;;
24229;SDS011;12362;50.004;8.006;2022-09-11T07:16:13;1.35;;;0.60;;
24229;SDS011;12362;50.004;8.006;2022-09-11T07:18:43;2.20;;;0.90;;
24229;SDS011;12362;50.004;8.006;2022-09-11T07:21:11;3.50;;;0.65;;
24229;SDS011;12362;50.004;8.006;2022-09-11T07:23:38;3.65;;;0.80;;
24229;SDS011;12362;50.004;8.006;2022-09-11T07:26:09;2.58;;;0.93;;
24229;SDS011;12362;50.004;8.006;2022-09-11T07:28:38;2.08;;;1.00;;
24229;SDS011;12362;50.004;8.006;2022-09-11T07:31:08;2.70;;;1.20;;
24229;SDS011;12362;50.004;8.006;2022-09-11T07:33:42;5.60;;;0.93;;
24229;SDS011;12362;50.004;8.006;2022-09-11T07:36:18;3.85;;;1.00;;
24229;SDS011;12362;50.004;8.006;2022-09-11T07:38:49;1.65;;;0.75;;
24229;SDS011;12362;50.004;8.006;2022-09-11T07:41:15;0.73;;;0.55;;
24229;SDS011;12362;50.004;8.006;2022-09-11T07:43:42;0.85;;;0.82;;
24229;SDS011;12362;50.004;8.006;2022-09-11T07:46:15;1.80;;;0.68;;
24229;SDS011;12362;50.004;8.006;2022-09-11T07:48:41;2.65;;;0.93;;
24229;SDS011;12362;50.004;8.006;2022-09-11T07:51:08;0.63;;;0.30;;
24229;SDS011;12362;50.004;8.006;2022-09-11T07:53:37;2.28;;;1.15;;
24229;SDS011;12362;50.004;8.006;2022-09-11T07:56:12;0.35;;;0.35;;
24229;SDS011;12362;50.004;8.006;2022-09-11T07:58:40;1.75;;;0.43;;
24229;SDS011;12362;50.004;8.006;2022-09-11T08:01:14;0.52;;;0.50;;
24229;SDS011;12362;50.004;8.006;2022-09-11T08:03:42;3.08;;;0.98;;
24229;SDS011;12362;50.004;8.006;2022-09-11T08:06:24;1.20;;;0.50;;
24229;SDS011;12362;50.004;8.006;2022-09-11T08:08:55;1.00;;;0.75;;
24229;SDS011;12362;50.004;8.006;2022-09-11T08:11:22;1.38;;;0.60;;
24229;SDS011;12362;50.004;8.006;2022-09-11T08:13:50;2.10;;;0.60;;
24229;SDS011;12362;50.004;8.006;2022-09-11T08:16:19;1.02;;;0.57;;
24229;SDS011;12362;50.004;8.006;2022-09-11T08:18:52;0.98;;;0.70;;
24229;SDS011;12362;50.004;8.006;2022-09-11T08:21:20;2.15;;;0.63;;
24229;SDS011;12362;50.004;8.006;2022-09-11T08:23:47;0.93;;;0.50;;
24229;SDS011;12362;50.004;8.006;2022-09-11T08:26:19;1.00;;;0.40;;
24229;SDS011;12362;50.004;8.006;2022-09-11T08:28:50;2.58;;;0.60;;
24229;SDS011;12362;50.004;8.006;2022-09-11T08:31:17;3.20;;;0.60;;
24229;SDS011;12362;50.004;8.006;2022-09-11T08:33:44;0.57;;;0.47;;
24229;SDS011;12362;50.004;8.006;2022-09-11T08:36:11;0.70;;;0.40;;
24229;SDS011;12362;50.004;8.006;2022-09-11T08:38:39;1.02;;;0.30;;
24229;SDS011;12362;50.004;8.006;2022-09-11T08:43:56;1.75;;;0.65;;
24229;SDS011;12362;50.004;8.006;2022-09-11T08:46:30;0.75;;;0.73;;
24229;SDS011;12362;50.004;8.006;2022-09-11T08:49:15;0.75;;;0.50;;
24229;SDS011;12362;50.004;8.006;2022-09-11T08:51:47;1.42;;;0.47;;
24229;SDS011;12362;50.004;8.006;2022-09-11T08:54:21;1.48;;;0.60;;
24229;SDS011;12362;50.004;8.006;2022-09-11T08:56:55;0.40;;;0.20;;
24229;SDS011;12362;50.004;8.006;2022-09-11T09:07:49;1.08;;;0.60;;
24229;SDS011;12362;50.004;8.006;2022-09-11T09:19:39;0.73;;;0.60;;
24229;SDS011;12362;50.004;8.006;2022-09-11T09:25:03;1.75;;;0.60;;
24229;SDS011;12362;50.004;8.006;2022-09-11T09:27:35;2.13;;;0.77;;
24229;SDS011;12362;50.004;8.006;2022-09-11T09:30:21;0.90;;;0.52;;
24229;SDS011;12362;50.004;8.006;2022-09-11T09:32:54;0.75;;;0.30;;
24229;SDS011;12362;50.004;8.006;2022-09-11T09:35:25;3.58;;;0.73;;
24229;SDS011;12362;50.004;8.006;2022-09-11T09:38:12;0.52;;;0.40;;
24229;SDS011;12362;50.004;8.006;2022-09-11T09:40:53;0.77;;;0.52;;
24229;SDS011;12362;50.004;8.006;2022-09-11T09:43:45;1.38;;;0.65;;
24229;SDS011;12362;50.004;8.006;2022-09-11T09:46:52;4.90;;;0.52;;
24229;SDS011;12362;50.004;8.006;2022-09-11T09:51:56;1.95;;;0.52;;
24229;SDS011;12362;50.004;8.006;2022-09-11T09:54:25;0.80;;;0.47;;
24229;SDS011;12362;50.004;8.006;2022-09-11T09:57:03;1.55;;;0.55;;
24229;SDS011;12362;50.004;8.006;2022-09-11T09:59:44;0.70;;;0.50;;
24229;SDS011;12362;50.004;8.006;2022-09-11T10:10:34;2.63;;;0.50;;
24229;SDS011;12362;50.004;8.006;2022-09-11T10:13:13;0.68;;;0.50;;
24229;SDS011;12362;50.004;8.006;2022-09-11T10:15:47;2.40;;;0.50;;
24229;SDS011;12362;50.004;8.006;2022-09-11T10:26:23;0.70;;;0.45;;
24229;SDS011;12362;50.004;8.006;2022-09-11T10:29:21;2.13;;;0.50;;
24229;SDS011;12362;50.004;8.006;2022-09-11T10:32:03;0.57;;;0.40;;
24229;SDS011;12362;50.004;8.006;2022-09-11T10:34:36;3.83;;;0.73;;
24229;SDS011;12362;50.004;8.006;2022-09-11T10:58:56;0.43;;;0.40;;
24229;SDS011;12362;50.004;8.006;2022-09-11T11:01:28;0.38;;;0.20;;
24229;SDS011;12362;50.004;8.006;2022-09-11T11:03:57;2.05;;;0.70;;
24229;SDS011;12362;50.004;8.006;2022-09-11T11:09:25;1.40;;;0.60;;
24229;SDS011;12362;50.004;8.006;2022-09-11T11:15:04;3.25;;;0.50;;
24229;SDS011;12362;50.004;8.006;2022-09-11T11:17:54;0.85;;;0.65;;
24229;SDS011;12362;50.004;8.006;2022-09-11T11:20:36;0.38;;;0.30;;
24229;SDS011;12362;50.004;8.006;2022-09-11T11:41:13;0.45;;;0.30;;
24229;SDS011;12362;50.004;8.006;2022-09-11T11:43:43;1.08;;;0.45;;
24229;SDS011;12362;50.004;8.006;2022-09-11T11:46:14;0.17;;;0.15;;
24229;SDS011;12362;50.004;8.006;2022-09-11T11:51:16;2.75;;;0.57;;
24229;SDS011;12362;50.004;8.006;2022-09-11T11:56:38;0.40;;;0.40;;
24229;SDS011;12362;50.004;8.006;2022-09-11T12:07:30;0.22;;;0.22;;
24229;SDS011;12362;50.004;8.006;2022-09-11T12:09:58;0.77;;;0.35;;
24229;SDS011;12362;50.004;8.006;2022-09-11T12:12:32;0.28;;;0.28;;
24229;SDS011;12362;50.004;8.006;2022-09-11T12:15:04;1.48;;;0.40;;
24229;SDS011;12362;50.004;8.006;2022-09-11T12:17:33;0.25;;;0.15;;
24229;SDS011;12362;50.004;8.006;2022-09-11T12:22:38;0.43;;;0.10;;
24229;SDS011;12362;50.004;8.006;2022-09-11T12:32:48;0.47;;;0.38;;
24229;SDS011;12362;50.004;8.006;2022-09-11T12:38:03;0.22;;;0.20;;
24229;SDS011;12362;50.004;8.006;2022-09-11T12:40:49;0.93;;;0.38;;
24229;SDS011;12362;50.004;8.006;2022-09-11T12:45:57;0.73;;;0.50;;
24229;SDS011;12362;50.004;8.006;2022-09-11T12:48:34;0.80;;;0.38;;
24229;SDS011;12362;50.004;8.006;2022-09-11T12:51:03;0.38;;;0.30;;
24229;SDS011;12362;50.004;8.006;2022-09-11T12:53:41;0.43;;;0.25;;
24229;SDS011;12362;50.004;8.006;2022-09-11T12:56:19;0.40;;;0.22;;
24229;SDS011;12362;50.004;8.006;2022-09-11T12:58:54;1.30;;;0.40;;
24229;SDS011;12362;50.004;8.006;2022-09-11T13:01:34;0.90;;;0.30;;
24229;SDS011;12362;50.004;8.006;2022-09-11T13:04:12;0.47;;;0.45;;
24229;SDS011;12362;50.004;8.006;2022-09-11T13:07:04;0.30;;;0.30;;
24229;SDS011;12362;50.004;8.006;2022-09-11T13:09:33;0.52;;;0.43;;
24229;SDS011;12362;50.004;8.006;2022-09-11T13:14:50;0.30;;;0.30;;
24229;SDS011;12362;50.004;8.006;2022-09-11T13:17:25;0.47;;;0.43;;
24229;SDS011;12362;50.004;8.006;2022-09-11T13:22:34;0.52;;;0.50;;
24229;SDS011;12362;50.004;8.006;2022-09-11T13:25:11;0.40;;;0.40;;
24229;SDS011;12362;50.004;8.006;2022-09-11T13:27:44;0.98;;;0.50;;
24229;SDS011;12362;50.004;8.006;2022-09-11T13:30:16;1.77;;;0.63;;
24229;SDS011;12362;50.004;8.006;2022-09-11T13:32:52;1.38;;;0.25;;
24229;SDS011;12362;50.004;8.006;2022-09-11T13:35:26;0.55;;;0.30;;
24229;SDS011;12362;50.004;8.006;2022-09-11T13:38:14;0.45;;;0.30;;
24229;SDS011;12362;50.004;8.006;2022-09-11T13:43:29;0.40;;;0.30;;
24229;SDS011;12362;50.004;8.006;2022-09-11T13:48:48;1.20;;;0.43;;
24229;SDS011;12362;50.004;8.006;2022-09-11T13:51:27;5.30;;;0.85;;
24229;SDS011;12362;50.004;8.006;2022-09-11T13:53:59;2.13;;;0.50;;
24229;SDS011;12362;50.004;8.006;2022-09-11T13:59:42;0.30;;;0.25;;
24229;SDS011;12362;50.004;8.006;2022-09-11T14:04:45;1.05;;;0.45;;
24229;SDS011;12362;50.004;8.006;2022-09-11T14:07:18;0.68;;;0.40;;
24229;SDS011;12362;50.004;8.006;2022-09-11T14:10:00;0.60;;;0.30;;
24229;SDS011;12362;50.004;8.006;2022-09-11T14:12:30;2.25;;;0.65;;
24229;SDS011;12362;50.004;8.006;2022-09-11T14:15:03;0.43;;;0.25;;
24229;SDS011;12362;50.004;8.006;2022-09-11T14:17:43;1.10;;;0.30;;
24229;SDS011;12362;50.004;8.006;2022-09-11T14:20:16;1.33;;;0.50;;
24229;SDS011;12362;50.004;8.006;2022-09-11T14:22:53;1.35;;;0.30;;
24229;SDS011;12362;50.004;8.006;2022-09-11T14:25:22;1.17;;;0.40;;
24229;SDS011;12362;50.004;8.006;2022-09-11T14:27:50;0.40;;;0.32;;
24229;SDS011;12362;50.004;8.006;2022-09-11T14:30:25;3.85;;;0.82;;
24229;SDS011;12362;50.004;8.006;2022-09-11T14:33:12;0.85;;;0.52;;
24229;SDS011;12362;50.004;8.006;2022-09-11T14:35:48;0.93;;;0.40;;
24229;SDS011;12362;50.004;8.006;2022-09-11T14:38:18;1.85;;;0.60;;
24229;SDS011;12362;50.004;8.006;2022-09-11T14:40:54;0.82;;;0.50;;
24229;SDS011;12362;50.004;8.006;2022-09-11T14:43:27;0.57;;;0.52;;
24229;SDS011;12362;50.004;8.006;2022-09-11T14:45:59;1.00;;;0.30;;
24229;SDS011;12362;50.004;8.006;2022-09-11T14:48:27;1.00;;;0.43;;
24229;SDS011;12362;50.004;8.006;2022-09-11T14:50:53;0.45;;;0.35;;
24229;SDS011;12362;50.004;8.006;2022-09-11T14:53:26;0.57;;;0.40;;
24229;SDS011;12362;50.004;8.006;2022-09-11T14:55:54;0.32;;;0.20;;
24229;SDS011;12362;50.004;8.006;2022-09-11T14:58:21;1.67;;;0.60;;
24229;SDS011;12362;50.004;8.006;2022-09-11T15:00:47;0.70;;;0.28;;
24229;SDS011;12362;50.004;8.006;2022-09-11T15:03:13;1.98;;;0.65;;
24229;SDS011;12362;50.004;8.006;2022-09-11T15:05:44;0.45;;;0.30;;
24229;SDS011;12362;50.004;8.006;2022-09-11T15:08:15;1.10;;;0.73;;
24229;SDS011;12362;50.004;8.006;2022-09-11T15:10:43;0.50;;;0.30;;
24229;SDS011;12362;50.004;8.006;2022-09-11T15:13:10;0.50;;;0.50;;
24229;SDS011;12362;50.004;8.006;2022-09-11T15:15:40;0.88;;;0.25;;
24229;SDS011;12362;50.004;8.006;2022-09-11T15:18:07;0.45;;;0.30;;
24229;SDS011;12362;50.004;8.006;2022-09-11T15:20:33;1.75;;;0.50;;
24229;SDS011;12362;50.004;8.006;2022-09-11T15:22:59;1.85;;;0.50;;
24229;SDS011;12362;50.004;8.006;2022-09-11T15:25:25;0.93;;;0.40;;
24229;SDS011;12362;50.004;8.006;2022-09-11T15:27:52;0.88;;;0.35;;
24229;SDS011;12362;50.004;8.006;2022-09-11T15:30:19;4.18;;;0.55;;
24229;SDS011;12362;50.004;8.006;2022-09-11T15:32:47;1.10;;;0.57;;
24229;SDS011;12362;50.004;8.006;2022-09-11T15:35:15;1.42;;;0.70;;
24229;SDS011;12362;50.004;8.006;2022-09-11T15:37:44;0.55;;;0.25;;
24229;SDS011;12362;50.004;8.006;2022-09-11T15:40:12;0.80;;;0.50;;
24229;SDS011;12362;50.004;8.006;2022-09-11T15:42:41;2.13;;;0.30;;
24229;SDS011;12362;50.004;8.006;2022-09-11T15:45:07;1.60;;;0.63;;
24229;SDS011;12362;50.004;8.006;2022-09-11T15:47:34;0.98;;;0.38;;
24229;SDS011;12362;50.004;8.006;2022-09-11T15:50:01;0.88;;;0.55;;
24229;SDS011;12362;50.004;8.006;2022-09-11T15:52:32;2.55;;;1.17;;
24229;SDS011;12362;50.004;8.006;2022-09-11T15:55:00;1.70;;;0.40;;
24229;SDS011;12362;50.004;8.006;2022-09-11T15:57:30;2.25;;;0.88;;
24229;SDS011;12362;50.004;8.006;2022-09-11T15:59:58;0.73;;;0.45;;
24229;SDS011;12362;50.004;8.006;2022-09-11T16:02:27;0.73;;;0.40;;
24229;SDS011;12362;50.004;8.006;2022-09-11T16:04:55;0.80;;;0.55;;
24229;SDS011;12362;50.004;8.006;2022-09-11T16:07:21;1.05;;;0.38;;
24229;SDS011;12362;50.004;8.006;2022-09-11T16:09:46;0.10;;;0.10;;
24229;SDS011;12362;50.004;8.006;2022-09-11T16:12:15;1.95;;;0.85;;
24229;SDS011;12362;50.004;8.006;2022-09-11T16:14:41;1.70;;;0.55;;
24229;SDS011;12362;50.004;8.006;2022-09-11T16:17:15;0.75;;;0.60;;
24229;SDS011;12362;50.004;8.006;2022-09-11T16:19:56;2.85;;;0.85;;
24229;SDS011;12362;50.004;8.006;2022-09-11T16:22:26;2.08;;;0.63;;
24229;SDS011;12362;50.004;8.006;2022-09-11T16:24:56;1.65;;;0.65;;
24229;SDS011;12362;50.004;8.006;2022-09-11T16:27:33;1.33;;;0.70;;
24229;SDS011;12362;50.004;8.006;2022-09-11T16:30:06;1.15;;;0.55;;
24229;SDS011;12362;50.004;8.006;2022-09-11T16:32:38;0.90;;;0.50;;
24229;SDS011;12362;50.004;8.006;2022-09-11T16:35:14;1.23;;;0.43;;
24229;SDS011;12362;50.004;8.006;2022-09-11T16:37:41;0.50;;;0.50;;
24229;SDS011;12362;50.004;8.006;2022-09-11T16:40:10;1.10;;;0.60;;
24229;SDS011;12362;50.004;8.006;2022-09-11T16:43:05;0.95;;;0.63;;
24229;SDS011;12362;50.004;8.006;2022-09-11T16:45:30;0.52;;;0.52;;
24229;SDS011;12362;50.004;8.006;2022-09-11T16:48:10;1.75;;;0.45;;
24229;SDS011;12362;50.004;8.006;2022-09-11T16:50:36;0.73;;;0.50;;
24229;SDS011;12362;50.004;8.006;2022-09-11T16:53:02;1.13;;;0.35;;
24229;SDS011;12362;50.004;8.006;2022-09-11T16:55:33;2.83;;;0.57;;
24229;SDS011;12362;50.004;8.006;2022-09-11T16:58:03;1.30;;;0.60;;
24229;SDS011;12362;50.004;8.006;2022-09-11T17:00:32;0.35;;;0.30;;
24229;SDS011;12362;50.004;8.006;2022-09-11T17:03:01;0.70;;;0.40;;
24229;SDS011;12362;50.004;8.006;2022-09-11T17:05:44;0.52;;;0.50;;
24229;SDS011;12362;50.004;8.006;2022-09-11T17:08:11;3.13;;;1.00;;
24229;SDS011;12362;50.004;8.006;2022-09-11T17:10:42;1.00;;;0.47;;
24229;SDS011;12362;50.004;8.006;2022-09-11T17:13:12;0.70;;;0.40;;
24229;SDS011;12362;50.004;8.006;2022-09-11T17:15:51;0.63;;;0.20;;
24229;SDS011;12362;50.004;8.006;2022-09-11T17:18:18;1.92;;;0.60;;
24229;SDS011;12362;50.004;8.006;2022-09-11T17:20:47;0.75;;;0.63;;
24229;SDS011;12362;50.004;8.006;2022-09-11T17:23:13;0.75;;;0.40;;
24229;SDS011;12362;50.004;8.006;2022-09-11T17:25:41;1.70;;;1.08;;
24229;SDS011;12362;50.004;8.006;2022-09-11T17:28:09;1.75;;;0.70;;
24229;SDS011;12362;50.004;8.006;2022-09-11T17:30:35;3.40;;;0.60;;
24229;SDS011;12362;50.004;8.006;2022-09-11T17:33:05;0.98;;;0.52;;
24229;SDS011;12362;50.004;8.006;2022-09-11T17:35:31;1.73;;;0.60;;
24229;SDS011;12362;50.004;8.006;2022-09-11T17:37:57;1.35;;;0.43;;
24229;SDS011;12362;50.004;8.006;2022-09-11T17:40:26;0.57;;;0.50;;
24229;SDS011;12362;50.004;8.006;2022-09-11T17:42:51;1.02;;;0.60;;
24229;SDS011;12362;50.004;8.006;2022-09-11T17:45:20;1.00;;;0.65;;
24229;SDS011;12362;50.004;8.006;2022-09-11T17:47:47;0.57;;;0.43;;
24229;SDS011;12362;50.004;8.006;2022-09-11T17:50:18;2.75;;;0.80;;
24229;SDS011;12362;50.004;8.006;2022-09-11T17:52:46;1.08;;;0.73;;
24229;SDS011;12362;50.004;8.006;2022-09-11T17:55:14;0.65;;;0.38;;